Pagrindinis puslapis
METAR-TAF:

METAR-TAF

Oro uostai :

Šenjangas, Kinija

platuma: 41-48N, ilguma: 123-24E, Aukštis: 35 m

Dabartinis oras

Ataskaita buvo paskelbta 33 minutes, ne 21:00 UTC
Vėjas 2 kt nuo kintamojo kryptimis
Temperatūra -16°C
Drėgmė 84%
Slėgis 1027 hPa
Matomumas: 0500 m
įšaldymas rūko

METAR: ZYTX 262100Z VRB01MPS 0500 R24/0175N FZFG VV001 M16/M18 Q1027 NOSIG

Laikas: 05:33 (21:33 UTC)

Prognozė

Ataskaita buvo paskelbta 6 valandos ir 24 minutes, ne 15:09 UTC
Prognozė galioja nuo 26 metu 18 UTC su 27 metu 18 UTC
Vėjas 6 kt iš Šiaurės Rytų
Matomumas: 0100 m
Su prošvaistėmis ne aukštis 3000 ft
įšaldymas rūko
Tapsmas
nuo 26 metu 20 UTC su 26 metu 21 UTC
Matomumas: 0300 m
Tapsmas
nuo 27 metu 02 UTC su 27 metu 03 UTC
Matomumas: 0500 m
Tapsmas
nuo 27 metu 05 UTC su 27 metu 06 UTC
Matomumas: 1000 m
rūkana
Tapsmas
nuo 27 metu 12 UTC su 27 metu 13 UTC
sniegas

TAF: ZYTX 261509Z 2618/2718 05003MPS 0100 FZFG BKN030 TXM02/2706Z TNM18/2700Z BECMG 2620/2621 0300 BECMG 2702/2703 0500 BECMG 2705/2706 1000 BR BECMG 2712/2713 -SN

Orai ataskaitas ir orų prognozės (METAR, TAF).

turimą stotys yra geltonos ir raudonos taškus žemėlapyje.

Perkelti pele per norėdami pamatyti stoties vardą.

Tada spustelėkite, norėdami matyti oro stebėjimo ir prognozės.

Norėdami pakeisti žemėlapį: spustelėkite ant žalios mygtukų su juodo kryžiaus žemyn,; žalią mygtuką su brūkšneliu, jei norite nutolinti; arba žalių rodyklių gretimoms žemėlapius.


METAR-TAF: